sensor_id;sensor_type;location;lat;lon;timestamp;pressure;altitude;pressure_sealevel;temperature;humidity
53041;BME280;39326;42.650;23.248;2024-02-26T00:01:57;92081.75;;;6.64;85.03
53041;BME280;39326;42.650;23.248;2024-02-26T00:04:22;92078.28;;;6.60;84.67
53041;BME280;39326;42.650;23.248;2024-02-26T00:06:47;92080.56;;;6.62;85.00
53041;BME280;39326;42.650;23.248;2024-02-26T00:09:15;92079.50;;;6.70;85.47
53041;BME280;39326;42.650;23.248;2024-02-26T00:11:41;92086.69;;;6.73;84.61
53041;BME280;39326;42.650;23.248;2024-02-26T00:14:06;92077.28;;;6.79;84.79
53041;BME280;39326;42.650;23.248;2024-02-26T00:16:31;92083.75;;;6.85;84.18
53041;BME280;39326;42.650;23.248;2024-02-26T00:18:57;92079.16;;;6.78;84.41
53041;BME280;39326;42.650;23.248;2024-02-26T00:21:23;92079.16;;;6.78;85.23
53041;BME280;39326;42.650;23.248;2024-02-26T00:23:53;92073.88;;;6.78;84.49
53041;BME280;39326;42.650;23.248;2024-02-26T00:26:18;92073.91;;;6.82;84.85
53041;BME280;39326;42.650;23.248;2024-02-26T00:28:44;92073.16;;;6.85;84.70
53041;BME280;39326;42.650;23.248;2024-02-26T00:31:09;92070.88;;;6.83;84.47
53041;BME280;39326;42.650;23.248;2024-02-26T00:33:34;92075.81;;;6.89;84.55
53041;BME280;39326;42.650;23.248;2024-02-26T00:36:00;92069.78;;;6.92;84.52
53041;BME280;39326;42.650;23.248;2024-02-26T00:38:25;92062.59;;;6.99;84.00
53041;BME280;39326;42.650;23.248;2024-02-26T00:40:51;92057.72;;;7.05;83.18
53041;BME280;39326;42.650;23.248;2024-02-26T00:43:16;92051.28;;;7.06;82.88
53041;BME280;39326;42.650;23.248;2024-02-26T00:45:41;92050.94;;;7.15;83.12
53041;BME280;39326;42.650;23.248;2024-02-26T00:48:07;92047.56;;;7.21;82.91
53041;BME280;39326;42.650;23.248;2024-02-26T00:50:36;92042.63;;;7.23;82.36
53041;BME280;39326;42.650;23.248;2024-02-26T00:53:02;92041.56;;;7.31;81.57
53041;BME280;39326;42.650;23.248;2024-02-26T00:55:27;92038.13;;;7.31;81.75
53041;BME280;39326;42.650;23.248;2024-02-26T00:57:53;92041.16;;;7.33;81.55
53041;BME280;39326;42.650;23.248;2024-02-26T01:00:18;92033.94;;;7.30;81.92
53041;BME280;39326;42.650;23.248;2024-02-26T01:02:44;92043.81;;;7.29;82.22
53041;BME280;39326;42.650;23.248;2024-02-26T01:05:12;92034.72;;;7.30;82.20
53041;BME280;39326;42.650;23.248;2024-02-26T01:07:37;92038.91;;;7.31;82.48
53041;BME280;39326;42.650;23.248;2024-02-26T01:10:03;92037.38;;;7.34;82.45
53041;BME280;39326;42.650;23.248;2024-02-26T01:12:29;92030.56;;;7.33;82.13
53041;BME280;39326;42.650;23.248;2024-02-26T01:14:55;92037.00;;;7.32;82.24
53041;BME280;39326;42.650;23.248;2024-02-26T01:17:20;92032.06;;;7.34;81.84
53041;BME280;39326;42.650;23.248;2024-02-26T01:19:46;92035.88;;;7.33;82.32
53041;BME280;39326;42.650;23.248;2024-02-26T01:22:11;92037.34;;;7.30;82.50
53041;BME280;39326;42.650;23.248;2024-02-26T01:24:36;92030.91;;;7.28;82.09
53041;BME280;39326;42.650;23.248;2024-02-26T01:27:02;92026.75;;;7.27;82.09
53041;BME280;39326;42.650;23.248;2024-02-26T01:29:27;92020.69;;;7.26;82.14
53041;BME280;39326;42.650;23.248;2024-02-26T01:31:53;92029.00;;;7.25;82.12
53041;BME280;39326;42.650;23.248;2024-02-26T01:34:18;92030.16;;;7.27;82.42
53041;BME280;39326;42.650;23.248;2024-02-26T01:36:44;92026.38;;;7.28;82.38
53041;BME280;39326;42.650;23.248;2024-02-26T01:39:09;92022.59;;;7.26;82.64
53041;BME280;39326;42.650;23.248;2024-02-26T01:41:40;92021.09;;;7.32;82.64
53041;BME280;39326;42.650;23.248;2024-02-26T01:44:06;92029.41;;;7.34;81.74
53041;BME280;39326;42.650;23.248;2024-02-26T01:46:33;92024.88;;;7.34;82.27
53041;BME280;39326;42.650;23.248;2024-02-26T01:48:59;92025.63;;;7.35;82.30
53041;BME280;39326;42.650;23.248;2024-02-26T01:51:26;92018.44;;;7.32;81.75
53041;BME280;39326;42.650;23.248;2024-02-26T01:53:52;92012.00;;;7.33;82.29
53041;BME280;39326;42.650;23.248;2024-02-26T01:56:19;92010.84;;;7.34;82.33
53041;BME280;39326;42.650;23.248;2024-02-26T01:58:46;92010.88;;;7.41;81.36
53041;BME280;39326;42.650;23.248;2024-02-26T02:01:15;92019.59;;;7.42;81.67
53041;BME280;39326;42.650;23.248;2024-02-26T02:03:42;92009.72;;;7.35;81.40
53041;BME280;39326;42.650;23.248;2024-02-26T02:06:08;92009.34;;;7.36;82.03
53041;BME280;39326;42.650;23.248;2024-02-26T02:08:34;92014.28;;;7.34;81.73
53041;BME280;39326;42.650;23.248;2024-02-26T02:11:00;92019.59;;;7.38;81.94
53041;BME280;39326;42.650;23.248;2024-02-26T02:13:26;92013.13;;;7.35;81.52
53041;BME280;39326;42.650;23.248;2024-02-26T02:15:52;92011.25;;;7.32;81.88
53041;BME280;39326;42.650;23.248;2024-02-26T02:18:17;91997.59;;;7.27;81.88
53041;BME280;39326;42.650;23.248;2024-02-26T02:20:44;92013.13;;;7.28;81.88
53041;BME280;39326;42.650;23.248;2024-02-26T02:23:09;92010.47;;;7.28;81.86
53041;BME280;39326;42.650;23.248;2024-02-26T02:25:34;92015.78;;;7.32;81.60
53041;BME280;39326;42.650;23.248;2024-02-26T02:28:00;92016.91;;;7.34;81.89
53041;BME280;39326;42.650;23.248;2024-02-26T02:30:28;92005.53;;;7.37;81.85
53041;BME280;39326;42.650;23.248;2024-02-26T02:32:55;92000.59;;;7.29;82.20
53041;BME280;39326;42.650;23.248;2024-02-26T02:35:20;91993.03;;;7.27;82.27
53041;BME280;39326;42.650;23.248;2024-02-26T02:37:46;92006.28;;;7.27;82.31
53041;BME280;39326;42.650;23.248;2024-02-26T02:40:11;92014.22;;;7.24;82.22
53041;BME280;39326;42.650;23.248;2024-02-26T02:42:37;92013.09;;;7.25;82.31
53041;BME280;39326;42.650;23.248;2024-02-26T02:45:02;92014.25;;;7.27;82.23
53041;BME280;39326;42.650;23.248;2024-02-26T02:47:28;92013.91;;;7.32;81.81
53041;BME280;39326;42.650;23.248;2024-02-26T02:49:53;92012.00;;;7.36;81.80
53041;BME280;39326;42.650;23.248;2024-02-26T02:52:18;92019.97;;;7.40;81.31
53041;BME280;39326;42.650;23.248;2024-02-26T02:54:44;92029.03;;;7.35;81.61
53041;BME280;39326;42.650;23.248;2024-02-26T02:57:09;92029.03;;;7.28;81.96
53041;BME280;39326;42.650;23.248;2024-02-26T02:59:35;92023.34;;;7.26;82.15
53041;BME280;39326;42.650;23.248;2024-02-26T03:02:01;92021.84;;;7.25;81.99
53041;BME280;39326;42.650;23.248;2024-02-26T03:04:26;92018.81;;;7.27;82.30
53041;BME280;39326;42.650;23.248;2024-02-26T03:06:52;92021.84;;;7.25;82.23
53041;BME280;39326;42.650;23.248;2024-02-26T03:09:17;92030.91;;;7.24;81.88
53041;BME280;39326;42.650;23.248;2024-02-26T03:11:43;92029.41;;;7.27;82.34
53041;BME280;39326;42.650;23.248;2024-02-26T03:14:08;92030.53;;;7.29;81.66
53041;BME280;39326;42.650;23.248;2024-02-26T03:16:34;92030.53;;;7.29;81.74
53041;BME280;39326;42.650;23.248;2024-02-26T03:19:00;92024.84;;;7.27;81.74
53041;BME280;39326;42.650;23.248;2024-02-26T03:21:27;92021.09;;;7.32;81.37
53041;BME280;39326;42.650;23.248;2024-02-26T03:23:52;92017.69;;;7.35;81.10
53041;BME280;39326;42.650;23.248;2024-02-26T03:26:18;92001.75;;;7.35;81.12
53041;BME280;39326;42.650;23.248;2024-02-26T03:28:44;92009.72;;;7.31;81.27
53041;BME280;39326;42.650;23.248;2024-02-26T03:31:09;92009.31;;;7.29;81.82
53041;BME280;39326;42.650;23.248;2024-02-26T03:33:35;92005.50;;;7.23;81.49
53041;BME280;39326;42.650;23.248;2024-02-26T03:36:01;92000.97;;;7.20;81.98
53041;BME280;39326;42.650;23.248;2024-02-26T03:38:28;91999.84;;;7.21;81.73
53041;BME280;39326;42.650;23.248;2024-02-26T03:40:53;92001.72;;;7.24;81.22
53041;BME280;39326;42.650;23.248;2024-02-26T03:43:19;91996.03;;;7.22;80.74
53041;BME280;39326;42.650;23.248;2024-02-26T03:45:44;91997.94;;;7.22;81.48
53041;BME280;39326;42.650;23.248;2024-02-26T03:48:09;91991.47;;;7.16;81.55
53041;BME280;39326;42.650;23.248;2024-02-26T03:50:35;91994.13;;;7.16;81.76
53041;BME280;39326;42.650;23.248;2024-02-26T03:53:00;91990.72;;;7.15;81.31
53041;BME280;39326;42.650;23.248;2024-02-26T03:55:26;91991.44;;;7.05;82.26
53041;BME280;39326;42.650;23.248;2024-02-26T03:57:51;91998.63;;;7.01;81.84
53041;BME280;39326;42.650;23.248;2024-02-26T04:00:17;91994.81;;;6.98;82.03
53041;BME280;39326;42.650;23.248;2024-02-26T04:02:43;91992.56;;;6.97;81.98
53041;BME280;39326;42.650;23.248;2024-02-26T04:05:11;91979.31;;;6.97;81.86
53041;BME280;39326;42.650;23.248;2024-02-26T04:07:37;91975.13;;;6.96;82.10
53041;BME280;39326;42.650;23.248;2024-02-26T04:10:03;91984.97;;;6.99;81.92
53041;BME280;39326;42.650;23.248;2024-02-26T04:12:31;91988.38;;;6.99;81.63
53041;BME280;39326;42.650;23.248;2024-02-26T04:14:56;91990.28;;;6.99;81.64
53041;BME280;39326;42.650;23.248;2024-02-26T04:17:21;91983.84;;;7.00;81.84
53041;BME280;39326;42.650;23.248;2024-02-26T04:19:47;91970.59;;;6.96;81.94
53041;BME280;39326;42.650;23.248;2024-02-26T04:22:12;91980.47;;;7.03;81.89
53041;BME280;39326;42.650;23.248;2024-02-26T04:24:38;91975.91;;;7.03;81.54
53041;BME280;39326;42.650;23.248;2024-02-26T04:27:03;91984.25;;;7.02;82.02
53041;BME280;39326;42.650;23.248;2024-02-26T04:29:29;91968.72;;;7.04;81.67
53041;BME280;39326;42.650;23.248;2024-02-26T04:31:54;91968.72;;;7.04;81.81
53041;BME280;39326;42.650;23.248;2024-02-26T04:34:20;91975.16;;;7.03;82.20
53041;BME280;39326;42.650;23.248;2024-02-26T04:36:45;91972.88;;;7.05;81.83
53041;BME280;39326;42.650;23.248;2024-02-26T04:39:10;91972.13;;;7.01;82.27
53041;BME280;39326;42.650;23.248;2024-02-26T04:41:36;91977.03;;;6.99;81.73
53041;BME280;39326;42.650;23.248;2024-02-26T04:44:01;91977.44;;;7.04;81.87
53041;BME280;39326;42.650;23.248;2024-02-26T04:46:27;91977.06;;;7.09;81.39
53041;BME280;39326;42.650;23.248;2024-02-26T04:48:53;91969.13;;;7.09;80.89
53041;BME280;39326;42.650;23.248;2024-02-26T04:51:19;91976.69;;;7.00;81.68
53041;BME280;39326;42.650;23.248;2024-02-26T04:53:44;91981.19;;;7.00;82.07
53041;BME280;39326;42.650;23.248;2024-02-26T04:56:10;91991.78;;;7.00;81.67
53041;BME280;39326;42.650;23.248;2024-02-26T04:58:35;91994.06;;;6.98;82.22
53041;BME280;39326;42.650;23.248;2024-02-26T05:01:01;91991.81;;;6.96;82.04
53041;BME280;39326;42.650;23.248;2024-02-26T05:03:26;91993.69;;;6.99;82.26
53041;BME280;39326;42.650;23.248;2024-02-26T05:05:51;91989.91;;;6.97;81.55
53041;BME280;39326;42.650;23.248;2024-02-26T05:08:17;92000.13;;;6.95;82.42
53041;BME280;39326;42.650;23.248;2024-02-26T05:10:45;92002.78;;;6.95;82.40
53041;BME280;39326;42.650;23.248;2024-02-26T05:13:10;92008.06;;;6.98;82.61
53041;BME280;39326;42.650;23.248;2024-02-26T05:15:36;92009.59;;;6.99;82.63
53041;BME280;39326;42.650;23.248;2024-02-26T05:18:02;92013.03;;;7.03;82.23
53041;BME280;39326;42.650;23.248;2024-02-26T05:20:28;92018.28;;;6.93;82.20
53041;BME280;39326;42.650;23.248;2024-02-26T05:22:53;92019.81;;;6.97;81.91
53041;BME280;39326;42.650;23.248;2024-02-26T05:25:19;92028.53;;;6.94;81.94
53041;BME280;39326;42.650;23.248;2024-02-26T05:27:45;92029.25;;;6.91;82.97
53041;BME280;39326;42.650;23.248;2024-02-26T05:30:11;92037.63;;;6.97;82.34
53041;BME280;39326;42.650;23.248;2024-02-26T05:32:37;92034.22;;;6.96;82.57
53041;BME280;39326;42.650;23.248;2024-02-26T05:35:03;92022.81;;;6.89;82.13
53041;BME280;39326;42.650;23.248;2024-02-26T05:37:29;92041.78;;;6.94;83.01
53041;BME280;39326;42.650;23.248;2024-02-26T05:39:54;92028.88;;;6.89;82.70
53041;BME280;39326;42.650;23.248;2024-02-26T05:42:20;92035.72;;;6.97;83.21
53041;BME280;39326;42.650;23.248;2024-02-26T05:44:45;92038.75;;;6.99;83.41
53041;BME280;39326;42.650;23.248;2024-02-26T05:47:11;92047.13;;;7.01;83.10
53041;BME280;39326;42.650;23.248;2024-02-26T05:49:36;92044.09;;;7.03;83.08
53041;BME280;39326;42.650;23.248;2024-02-26T05:52:01;92049.38;;;7.03;83.10
53041;BME280;39326;42.650;23.248;2024-02-26T05:54:27;92045.22;;;7.05;83.30
53041;BME280;39326;42.650;23.248;2024-02-26T05:56:53;92044.47;;;7.05;82.85
53041;BME280;39326;42.650;23.248;2024-02-26T05:59:18;92041.06;;;7.08;82.99
53041;BME280;39326;42.650;23.248;2024-02-26T06:01:43;92049.75;;;7.05;83.08
53041;BME280;39326;42.650;23.248;2024-02-26T06:04:09;92049.78;;;7.08;83.32
53041;BME280;39326;42.650;23.248;2024-02-26T06:06:34;92052.44;;;7.12;83.29
53041;BME280;39326;42.650;23.248;2024-02-26T06:09:00;92046.78;;;7.14;83.55
53041;BME280;39326;42.650;23.248;2024-02-26T06:11:25;92044.88;;;7.10;83.09
53041;BME280;39326;42.650;23.248;2024-02-26T06:13:50;92047.91;;;7.16;83.16
53041;BME280;39326;42.650;23.248;2024-02-26T06:16:16;92058.91;;;7.15;83.29
53041;BME280;39326;42.650;23.248;2024-02-26T06:18:41;92055.50;;;7.14;83.42
53041;BME280;39326;42.650;23.248;2024-02-26T06:21:10;92051.34;;;7.17;83.39
53041;BME280;39326;42.650;23.248;2024-02-26T06:23:36;92059.31;;;7.20;83.38
53041;BME280;39326;42.650;23.248;2024-02-26T06:26:01;92050.22;;;7.21;83.89
53041;BME280;39326;42.650;23.248;2024-02-26T06:28:27;92053.94;;;7.06;84.60
53041;BME280;39326;42.650;23.248;2024-02-26T06:30:55;92049.81;;;7.16;84.58
53041;BME280;39326;42.650;23.248;2024-02-26T06:33:21;92061.56;;;7.15;84.41
53041;BME280;39326;42.650;23.248;2024-02-26T06:35:46;92051.69;;;7.11;84.87
53041;BME280;39326;42.650;23.248;2024-02-26T06:38:12;92043.00;;;7.18;84.21
53041;BME280;39326;42.650;23.248;2024-02-26T06:40:38;92047.19;;;7.23;84.30
53041;BME280;39326;42.650;23.248;2024-02-26T06:43:04;92047.97;;;7.27;84.13
53041;BME280;39326;42.650;23.248;2024-02-26T06:45:29;92053.25;;;7.23;84.56
53041;BME280;39326;42.650;23.248;2024-02-26T06:47:55;92049.88;;;7.26;84.36
53041;BME280;39326;42.650;23.248;2024-02-26T06:50:21;92049.84;;;7.30;84.62
53041;BME280;39326;42.650;23.248;2024-02-26T06:52:47;92054.06;;;7.34;84.89
53041;BME280;39326;42.650;23.248;2024-02-26T06:55:12;92060.44;;;7.16;85.97
53041;BME280;39326;42.650;23.248;2024-02-26T06:57:38;92067.63;;;7.19;85.69
53041;BME280;39326;42.650;23.248;2024-02-26T07:00:04;92056.63;;;7.17;85.74
53041;BME280;39326;42.650;23.248;2024-02-26T07:02:30;92048.69;;;7.24;85.51
53041;BME280;39326;42.650;23.248;2024-02-26T07:04:56;92055.91;;;7.23;85.23
53041;BME280;39326;42.650;23.248;2024-02-26T07:07:23;92059.34;;;7.27;85.21
53041;BME280;39326;42.650;23.248;2024-02-26T07:09:49;92058.91;;;7.18;85.65
53041;BME280;39326;42.650;23.248;2024-02-26T07:12:15;92068.75;;;7.18;86.20
53041;BME280;39326;42.650;23.248;2024-02-26T07:14:41;92069.00;;;6.91;87.81
53041;BME280;39326;42.650;23.248;2024-02-26T07:17:07;92081.19;;;7.03;87.56
53041;BME280;39326;42.650;23.248;2024-02-26T07:19:33;92081.19;;;7.03;87.67
53041;BME280;39326;42.650;23.248;2024-02-26T07:21:59;92077.00;;;6.98;88.11
53041;BME280;39326;42.650;23.248;2024-02-26T07:24:26;92077.00;;;6.98;87.71
53041;BME280;39326;42.650;23.248;2024-02-26T07:26:52;92081.50;;;6.91;89.27
53041;BME280;39326;42.650;23.248;2024-02-26T07:29:19;92073.25;;;7.03;87.85
53041;BME280;39326;42.650;23.248;2024-02-26T07:31:45;92073.31;;;7.17;88.00
53041;BME280;39326;42.650;23.248;2024-02-26T07:34:10;92069.94;;;7.31;87.27
53041;BME280;39326;42.650;23.248;2024-02-26T07:36:36;92077.22;;;7.45;86.34
53041;BME280;39326;42.650;23.248;2024-02-26T07:39:01;92082.16;;;7.53;86.42
53041;BME280;39326;42.650;23.248;2024-02-26T07:41:27;92083.28;;;7.56;86.57
53041;BME280;39326;42.650;23.248;2024-02-26T07:43:52;92082.16;;;7.53;86.32
53041;BME280;39326;42.650;23.248;2024-02-26T07:46:17;92073.84;;;7.62;85.65
53041;BME280;39326;42.650;23.248;2024-02-26T07:48:43;92073.84;;;7.62;85.86
53041;BME280;39326;42.650;23.248;2024-02-26T07:51:09;92068.59;;;7.76;85.66
53041;BME280;39326;42.650;23.248;2024-02-26T07:53:34;92072.34;;;7.75;85.06
53041;BME280;39326;42.650;23.248;2024-02-26T07:55:59;92077.31;;;7.84;85.15
53041;BME280;39326;42.650;23.248;2024-02-26T07:58:25;92070.13;;;7.99;84.70
53041;BME280;39326;42.650;23.248;2024-02-26T08:00:50;92074.69;;;8.09;83.58
53041;BME280;39326;42.650;23.248;2024-02-26T08:03:16;92075.81;;;8.11;84.38
53041;BME280;39326;42.650;23.248;2024-02-26T08:05:42;92071.28;;;8.26;83.71
53041;BME280;39326;42.650;23.248;2024-02-26T08:08:08;92066.72;;;8.09;84.38
53041;BME280;39326;42.650;23.248;2024-02-26T08:10:34;92061.78;;;7.89;84.91
53041;BME280;39326;42.650;23.248;2024-02-26T08:12:59;92076.59;;;8.15;84.43
53041;BME280;39326;42.650;23.248;2024-02-26T08:15:33;92056.47;;;8.22;84.45
53041;BME280;39326;42.650;23.248;2024-02-26T08:18:00;92065.97;;;8.30;83.68
53041;BME280;39326;42.650;23.248;2024-02-26T08:20:28;92069.00;;;8.42;83.52
53041;BME280;39326;42.650;23.248;2024-02-26T08:22:53;92061.44;;;8.44;82.89
53041;BME280;39326;42.650;23.248;2024-02-26T08:25:19;92062.94;;;8.42;82.66
53041;BME280;39326;42.650;23.248;2024-02-26T08:27:45;92060.69;;;8.58;82.30
53041;BME280;39326;42.650;23.248;2024-02-26T08:30:11;92059.13;;;8.71;81.78
53041;BME280;39326;42.650;23.248;2024-02-26T08:32:38;92061.78;;;8.79;82.11
53041;BME280;39326;42.650;23.248;2024-02-26T08:35:04;92062.13;;;8.88;81.33
53041;BME280;39326;42.650;23.248;2024-02-26T08:37:30;92062.47;;;9.04;80.16
53041;BME280;39326;42.650;23.248;2024-02-26T08:39:55;92061.69;;;9.07;80.00
53041;BME280;39326;42.650;23.248;2024-02-26T08:42:21;92066.63;;;9.16;79.45
53041;BME280;39326;42.650;23.248;2024-02-26T08:44:48;92064.69;;;9.23;79.16
53041;BME280;39326;42.650;23.248;2024-02-26T08:47:14;92066.22;;;9.24;79.52
53041;BME280;39326;42.650;23.248;2024-02-26T08:49:44;92059.75;;;9.29;78.77
53041;BME280;39326;42.650;23.248;2024-02-26T08:52:10;92063.88;;;9.37;78.97
53041;BME280;39326;42.650;23.248;2024-02-26T08:54:36;92066.94;;;9.39;79.25
53041;BME280;39326;42.650;23.248;2024-02-26T08:57:01;92068.81;;;9.39;79.01
53041;BME280;39326;42.650;23.248;2024-02-26T08:59:28;92069.84;;;9.66;78.14
53041;BME280;39326;42.650;23.248;2024-02-26T09:01:53;92059.16;;;9.70;77.87
53041;BME280;39326;42.650;23.248;2024-02-26T09:04:18;92066.78;;;9.71;78.16
53041;BME280;39326;42.650;23.248;2024-02-26T09:06:44;92057.19;;;9.85;77.47
53041;BME280;39326;42.650;23.248;2024-02-26T09:09:09;92052.31;;;9.72;77.58
53041;BME280;39326;42.650;23.248;2024-02-26T09:11:36;92046.50;;;9.92;76.91
53041;BME280;39326;42.650;23.248;2024-02-26T09:14:01;92047.59;;;9.94;77.04
53041;BME280;39326;42.650;23.248;2024-02-26T09:16:27;92054.44;;;9.99;76.63
53041;BME280;39326;42.650;23.248;2024-02-26T09:18:52;92051.38;;;10.00;76.96
53041;BME280;39326;42.650;23.248;2024-02-26T09:21:17;92056.69;;;10.00;76.91
53041;BME280;39326;42.650;23.248;2024-02-26T09:23:50;92049.38;;;10.19;75.89
53041;BME280;39326;42.650;23.248;2024-02-26T09:26:16;92052.09;;;10.12;76.55
53041;BME280;39326;42.650;23.248;2024-02-26T09:28:42;92048.22;;;10.20;76.66
53041;BME280;39326;42.650;23.248;2024-02-26T09:31:08;92044.38;;;10.28;76.17
53041;BME280;39326;42.650;23.248;2024-02-26T09:33:33;92047.78;;;10.28;76.17
53041;BME280;39326;42.650;23.248;2024-02-26T09:35:59;92045.09;;;10.32;75.98
53041;BME280;39326;42.650;23.248;2024-02-26T09:38:26;92045.06;;;10.35;75.63
53041;BME280;39326;42.650;23.248;2024-02-26T09:40:53;92043.63;;;10.24;75.50
53041;BME280;39326;42.650;23.248;2024-02-26T09:43:21;92050.53;;;10.18;75.35
53041;BME280;39326;42.650;23.248;2024-02-26T09:45:47;92034.91;;;10.20;75.63
53041;BME280;39326;42.650;23.248;2024-02-26T09:48:14;92037.53;;;10.27;75.80
53041;BME280;39326;42.650;23.248;2024-02-26T09:50:42;92037.63;;;10.57;74.84
53041;BME280;39326;42.650;23.248;2024-02-26T09:53:10;92040.63;;;10.67;74.22
53041;BME280;39326;42.650;23.248;2024-02-26T09:55:36;92042.41;;;10.77;72.83
53041;BME280;39326;42.650;23.248;2024-02-26T09:58:05;92033.22;;;10.85;72.03
53041;BME280;39326;42.650;23.248;2024-02-26T10:00:31;92032.66;;;11.01;71.48
53041;BME280;39326;42.650;23.248;2024-02-26T10:03:09;92036.38;;;11.10;71.05
53041;BME280;39326;42.650;23.248;2024-02-26T10:05:38;92025.88;;;11.27;70.31
53041;BME280;39326;42.650;23.248;2024-02-26T10:08:06;92034.97;;;11.33;69.10
53041;BME280;39326;42.650;23.248;2024-02-26T10:10:33;92030.63;;;11.46;68.46
53041;BME280;39326;42.650;23.248;2024-02-26T10:13:00;92027.94;;;11.50;67.38
53041;BME280;39326;42.650;23.248;2024-02-26T10:15:26;92014.84;;;11.59;67.00
53041;BME280;39326;42.650;23.248;2024-02-26T10:17:52;92009.84;;;11.61;67.06
53041;BME280;39326;42.650;23.248;2024-02-26T10:20:18;92010.84;;;11.70;66.37
53041;BME280;39326;42.650;23.248;2024-02-26T10:22:46;92019.72;;;11.64;65.76
53041;BME280;39326;42.650;23.248;2024-02-26T10:25:12;92008.34;;;11.60;65.53
53041;BME280;39326;42.650;23.248;2024-02-26T10:27:37;92004.13;;;11.28;65.40
53041;BME280;39326;42.650;23.248;2024-02-26T10:30:23;92007.59;;;11.25;64.28
53041;BME280;39326;42.650;23.248;2024-02-26T10:32:51;91999.47;;;11.36;65.75
53041;BME280;39326;42.650;23.248;2024-02-26T10:35:16;91995.97;;;11.39;65.98
53041;BME280;39326;42.650;23.248;2024-02-26T10:37:51;91994.53;;;11.65;65.45
53041;BME280;39326;42.650;23.248;2024-02-26T10:40:17;91997.47;;;11.74;64.71
53041;BME280;39326;42.650;23.248;2024-02-26T10:42:43;91987.63;;;11.67;64.63
53041;BME280;39326;42.650;23.248;2024-02-26T10:45:10;91985.91;;;11.81;64.25
53041;BME280;39326;42.650;23.248;2024-02-26T10:47:36;91984.81;;;11.78;64.21
53041;BME280;39326;42.650;23.248;2024-02-26T10:50:03;91977.78;;;11.88;64.48
53041;BME280;39326;42.650;23.248;2024-02-26T10:52:33;91979.16;;;12.00;63.11
53041;BME280;39326;42.650;23.248;2024-02-26T10:55:04;91978.31;;;12.03;63.24
53041;BME280;39326;42.650;23.248;2024-02-26T10:57:39;91976.66;;;12.12;62.59
53041;BME280;39326;42.650;23.248;2024-02-26T11:00:05;91975.78;;;12.19;62.64
53041;BME280;39326;42.650;23.248;2024-02-26T11:02:34;91970.59;;;12.08;62.80
53041;BME280;39326;42.650;23.248;2024-02-26T11:05:04;91957.38;;;12.01;62.01
53041;BME280;39326;42.650;23.248;2024-02-26T11:07:31;91962.66;;;12.05;61.31
53041;BME280;39326;42.650;23.248;2024-02-26T11:10:00;91962.22;;;12.10;61.64
53041;BME280;39326;42.650;23.248;2024-02-26T11:12:27;91957.72;;;12.27;61.32
53041;BME280;39326;42.650;23.248;2024-02-26T11:14:55;91964.00;;;12.16;61.55
53041;BME280;39326;42.650;23.248;2024-02-26T11:17:22;91963.00;;;12.30;60.67
53041;BME280;39326;42.650;23.248;2024-02-26T11:19:50;91972.22;;;12.29;60.17
53041;BME280;39326;42.650;23.248;2024-02-26T11:22:16;91973.06;;;12.22;60.49
53041;BME280;39326;42.650;23.248;2024-02-26T11:24:43;91968.69;;;12.32;60.47
53041;BME280;39326;42.650;23.248;2024-02-26T11:27:10;91963.47;;;12.25;60.40
53041;BME280;39326;42.650;23.248;2024-02-26T11:29:43;91972.13;;;12.33;60.68
53041;BME280;39326;42.650;23.248;2024-02-26T11:32:09;91964.97;;;12.26;59.93
53041;BME280;39326;42.650;23.248;2024-02-26T11:34:35;91959.22;;;12.28;60.12
53041;BME280;39326;42.650;23.248;2024-02-26T11:39:36;91956.91;;;12.30;59.91
53041;BME280;39326;42.650;23.248;2024-02-26T11:42:06;91955.78;;;12.50;59.83
53041;BME280;39326;42.650;23.248;2024-02-26T11:44:31;91954.75;;;12.44;59.63
53041;BME280;39326;42.650;23.248;2024-02-26T11:46:57;91950.56;;;12.43;59.05
53041;BME280;39326;42.650;23.248;2024-02-26T11:51:53;91954.03;;;12.40;58.85
53041;BME280;39326;42.650;23.248;2024-02-26T12:07:54;91963.34;;;12.99;56.83
53041;BME280;39326;42.650;23.248;2024-02-26T12:10:23;91958.75;;;12.99;57.43
53041;BME280;39326;42.650;23.248;2024-02-26T12:13:07;91965.00;;;13.13;56.79
53041;BME280;39326;42.650;23.248;2024-02-26T12:15:37;91963.94;;;13.26;56.53
53041;BME280;39326;42.650;23.248;2024-02-26T12:18:05;91971.03;;;13.37;55.51
53041;BME280;39326;42.650;23.248;2024-02-26T12:20:31;91968.38;;;13.17;55.71
53041;BME280;39326;42.650;23.248;2024-02-26T12:22:57;91970.81;;;13.27;54.88
53041;BME280;39326;42.650;23.248;2024-02-26T12:25:28;91968.53;;;13.46;54.53
53041;BME280;39326;42.650;23.248;2024-02-26T12:27:54;91970.41;;;13.29;54.56
53041;BME280;39326;42.650;23.248;2024-02-26T12:30:20;91976.56;;;13.46;54.89
53041;BME280;39326;42.650;23.248;2024-02-26T12:32:47;91976.03;;;13.54;54.18
53041;BME280;39326;42.650;23.248;2024-02-26T12:35:13;91975.78;;;13.29;53.74
53041;BME280;39326;42.650;23.248;2024-02-26T12:37:39;91979.66;;;13.44;54.13
53041;BME280;39326;42.650;23.248;2024-02-26T12:40:06;91972.97;;;13.52;53.05
53041;BME280;39326;42.650;23.248;2024-02-26T12:42:34;91984.53;;;13.49;52.83
53041;BME280;39326;42.650;23.248;2024-02-26T12:45:05;91979.09;;;13.53;52.88
53041;BME280;39326;42.650;23.248;2024-02-26T12:47:38;91973.44;;;13.67;52.45
53041;BME280;39326;42.650;23.248;2024-02-26T12:50:04;91969.00;;;13.61;53.28
53041;BME280;39326;42.650;23.248;2024-02-26T12:52:33;91971.91;;;13.50;53.14
53041;BME280;39326;42.650;23.248;2024-02-26T12:55:01;91977.72;;;13.45;53.00
53041;BME280;39326;42.650;23.248;2024-02-26T12:57:30;91970.38;;;13.49;52.74
53041;BME280;39326;42.650;23.248;2024-02-26T12:59:56;91974.03;;;13.39;52.37
53041;BME280;39326;42.650;23.248;2024-02-26T13:02:22;91972.69;;;13.30;52.88
53041;BME280;39326;42.650;23.248;2024-02-26T13:04:48;91969.38;;;13.43;53.02
53041;BME280;39326;42.650;23.248;2024-02-26T13:07:14;91971.63;;;13.44;52.78
53041;BME280;39326;42.650;23.248;2024-02-26T13:09:39;91962.69;;;13.51;53.05
53041;BME280;39326;42.650;23.248;2024-02-26T13:12:06;91968.63;;;13.42;52.78